createdAt,value
2022-11-23T00:00:37.380Z,97000.91
2022-11-23T00:03:04.509Z,97005.16
2022-11-23T00:05:31.512Z,97005.88
2022-11-23T00:07:58.134Z,97004.31
2022-11-23T00:10:24.786Z,97007.41
2022-11-23T00:12:51.517Z,97006.75
2022-11-23T00:15:18.311Z,97009.91
2022-11-23T00:17:48.456Z,97010.28
2022-11-23T00:20:15.285Z,97007.09
2022-11-23T00:22:41.935Z,97011.72
2022-11-23T00:27:48.319Z,97007.53
2022-11-23T00:30:15.134Z,97010.75
2022-11-23T00:32:41.772Z,97013.00
2022-11-23T00:35:08.930Z,97016.47
2022-11-23T00:37:35.548Z,97019.59
2022-11-23T00:40:02.180Z,97017.63
2022-11-23T00:42:30.616Z,97013.72
2022-11-23T00:45:00.406Z,97005.94
2022-11-23T00:47:27.043Z,97010.25
2022-11-23T00:49:53.800Z,97012.84
2022-11-23T00:54:52.907Z,97015.78
2022-11-23T00:57:19.549Z,97018.09
2022-11-23T00:59:46.220Z,97008.59
2022-11-23T01:04:47.432Z,97011.25
2022-11-23T01:07:14.073Z,97000.06
2022-11-23T01:12:17.144Z,97006.75
2022-11-23T01:14:43.832Z,97013.72
2022-11-23T01:17:10.443Z,97014.06
2022-11-23T01:19:37.165Z,97015.25
2022-11-23T01:22:03.873Z,97020.34
2022-11-23T01:24:30.703Z,97011.78
2022-11-23T01:26:57.360Z,97018.59
2022-11-23T01:29:24.628Z,97008.56
2022-11-23T01:31:51.315Z,97013.16
2022-11-23T01:34:18.172Z,97013.16
2022-11-23T01:36:45.685Z,97018.63
2022-11-23T01:39:13.312Z,97014.78
2022-11-23T01:41:42.479Z,97016.28
2022-11-23T01:44:30.373Z,97019.38
2022-11-23T01:59:58.809Z,97036.28
2022-11-23T02:02:28.342Z,97036.63
2022-11-23T02:04:55.728Z,97030.84
2022-11-23T02:09:57.867Z,97044.75
2022-11-23T02:12:24.559Z,97040.53
2022-11-23T02:14:51.376Z,97046.41
2022-11-23T02:17:18.993Z,97033.59
2022-11-23T02:19:57.441Z,97040.28
2022-11-23T02:22:59.200Z,97039.19
2022-11-23T02:25:46.032Z,97040.97
2022-11-23T02:28:17.732Z,97047.97
2022-11-23T02:30:48.318Z,97051.72
2022-11-23T02:33:15.058Z,97047.03
2022-11-23T02:36:26.344Z,97051.97
2022-11-23T02:38:54.829Z,97049.19
2022-11-23T02:43:56.920Z,97051.25
2022-11-23T02:46:23.582Z,97051.59
2022-11-23T02:48:50.213Z,97046.03
2022-11-23T02:51:16.844Z,97048.38
2022-11-23T02:53:43.416Z,97047.13
2022-11-23T02:56:10.071Z,97046.38
2022-11-23T02:58:36.672Z,97045.94
2022-11-23T03:03:34.649Z,97051.47
2022-11-23T03:08:33.054Z,97056.09
2022-11-23T03:11:02.093Z,97055.97
2022-11-23T03:13:28.749Z,97052.03
2022-11-23T03:15:59.575Z,97047.78
2022-11-23T03:18:26.401Z,97052.84
2022-11-23T03:20:53.047Z,97058.13
2022-11-23T03:23:19.723Z,97057.09
2022-11-23T03:25:46.389Z,97054.25
2022-11-23T03:28:13.091Z,97057.50
2022-11-23T03:30:39.697Z,97059.78
2022-11-23T03:33:06.338Z,97054.31
2022-11-23T03:35:32.967Z,97052.81
2022-11-23T03:43:02.278Z,97054.19
2022-11-23T03:45:28.979Z,97053.03
2022-11-23T03:47:55.665Z,97060.06
2022-11-23T03:50:22.465Z,97066.72
2022-11-23T03:52:50.018Z,97057.09
2022-11-23T03:55:17.451Z,97057.53
2022-11-23T03:57:44.130Z,97052.06
2022-11-23T04:00:11.350Z,97049.69
2022-11-23T04:02:38.022Z,97047.38
2022-11-23T04:05:05.103Z,97048.53
2022-11-23T04:07:31.811Z,97050.13
2022-11-23T04:09:58.449Z,97041.97
2022-11-23T04:12:26.143Z,97033.91
2022-11-23T04:14:53.043Z,97035.41
2022-11-23T04:17:19.822Z,97040.91
2022-11-23T04:19:46.538Z,97036.63
2022-11-23T04:22:13.237Z,97031.25
2022-11-23T04:24:39.902Z,97032.84
2022-11-23T04:27:06.553Z,97033.97
2022-11-23T04:29:33.391Z,97037.31
2022-11-23T04:32:00.225Z,97034.66
2022-11-23T04:34:26.858Z,97034.31
2022-11-23T04:36:53.536Z,97032.81
2022-11-23T04:39:20.151Z,97032.78
2022-11-23T04:44:24.563Z,97033.63
2022-11-23T04:49:29.146Z,97040.69
2022-11-23T04:51:56.034Z,97033.41
2022-11-23T04:54:22.714Z,97035.72
2022-11-23T04:56:49.337Z,97031.38
2022-11-23T04:59:16.130Z,97026.28
2022-11-23T05:01:42.754Z,97023.22
2022-11-23T05:04:13.496Z,97025.22
2022-11-23T05:06:42.973Z,97017.28
2022-11-23T05:09:09.625Z,97025.75
2022-11-23T05:11:36.241Z,97029.53
2022-11-23T05:14:02.891Z,97024.53
2022-11-23T05:16:29.522Z,97028.84
2022-11-23T05:21:27.496Z,97024.00
2022-11-23T05:23:54.167Z,97017.75
2022-11-23T05:26:20.849Z,97026.38
2022-11-23T05:28:47.458Z,97024.59
2022-11-23T05:31:14.126Z,97026.09
2022-11-23T05:33:40.784Z,97023.81
2022-11-23T05:36:07.706Z,97021.56
2022-11-23T05:38:34.531Z,97015.69
2022-11-23T05:41:01.179Z,97006.72
2022-11-23T05:43:27.859Z,97009.66
2022-11-23T05:45:54.490Z,97014.22
2022-11-23T05:48:21.146Z,97012.38
2022-11-23T05:50:50.615Z,97009.34
2022-11-23T05:53:17.407Z,97013.72
2022-11-23T05:55:44.267Z,97018.34
2022-11-23T05:58:10.897Z,97011.41
2022-11-23T06:00:37.964Z,97017.78
2022-11-23T06:03:04.805Z,97013.19
2022-11-23T06:05:31.804Z,97015.88
2022-11-23T06:10:29.742Z,97014.00
2022-11-23T06:13:02.505Z,97014.09
2022-11-23T06:15:29.288Z,97012.41
2022-11-23T06:18:00.113Z,97008.16
2022-11-23T06:20:27.222Z,97005.22
2022-11-23T06:22:54.935Z,97008.00
2022-11-23T06:25:22.237Z,97003.78
2022-11-23T06:27:56.802Z,97009.56
2022-11-23T06:30:24.435Z,97006.84
2022-11-23T06:32:51.253Z,97012.38
2022-11-23T06:35:18.015Z,97012.75
2022-11-23T06:37:44.725Z,97012.59
2022-11-23T06:40:12.247Z,97008.16
2022-11-23T06:42:40.168Z,97008.19
2022-11-23T06:45:08.083Z,97012.88
2022-11-23T06:47:35.042Z,97021.56
2022-11-23T06:50:01.672Z,97018.16
2022-11-23T06:52:28.946Z,97018.91
2022-11-23T06:54:55.607Z,97026.63
2022-11-23T06:57:22.257Z,97024.53
2022-11-23T06:59:49.253Z,97032.03
2022-11-23T07:04:47.226Z,97032.34
2022-11-23T07:07:13.932Z,97040.53
2022-11-23T07:09:40.631Z,97041.13
2022-11-23T07:12:07.706Z,97039.19
2022-11-23T07:14:34.377Z,97038.03
2022-11-23T07:17:01.044Z,97040.28
2022-11-23T07:19:27.668Z,97044.94
2022-11-23T07:21:54.435Z,97046.09
2022-11-23T07:24:21.024Z,97042.16
2022-11-23T07:26:47.640Z,97048.47
2022-11-23T07:29:14.364Z,97044.47
2022-11-23T07:31:41.013Z,97045.56
2022-11-23T07:34:09.444Z,97045.97
2022-11-23T07:36:36.152Z,97042.00
2022-11-23T07:39:03.825Z,97045.56
2022-11-23T07:41:30.520Z,97046.06
2022-11-23T07:43:57.192Z,97053.06
2022-11-23T07:46:23.819Z,97052.41
2022-11-23T07:48:50.753Z,97054.22
2022-11-23T07:51:19.710Z,97060.88
2022-11-23T07:53:47.123Z,97055.56
2022-11-23T07:56:13.849Z,97056.44
2022-11-23T07:58:40.445Z,97064.16
2022-11-23T08:01:07.114Z,97068.09
2022-11-23T08:03:33.981Z,97057.28
2022-11-23T08:06:00.806Z,97066.22
2022-11-23T08:08:27.596Z,97061.78
2022-11-23T08:10:54.810Z,97066.47
2022-11-23T08:13:22.478Z,97054.31
2022-11-23T08:15:55.058Z,97069.63
2022-11-23T08:18:23.471Z,97070.56
2022-11-23T08:20:50.216Z,97065.84
2022-11-23T08:23:16.938Z,97065.94
2022-11-23T08:25:43.702Z,97067.94
2022-11-23T08:28:11.007Z,97069.59
2022-11-23T08:30:38.207Z,97070.25
2022-11-23T08:33:06.395Z,97070.88
2022-11-23T08:35:37.352Z,97075.88
2022-11-23T08:38:05.330Z,97068.72
2022-11-23T08:40:32.690Z,97074.78
2022-11-23T08:42:59.493Z,97068.53
2022-11-23T08:45:26.734Z,97065.06
2022-11-23T08:47:54.269Z,97061.59
2022-11-23T08:52:59.307Z,97064.72
2022-11-23T08:55:27.682Z,97066.59
2022-11-23T08:57:58.001Z,97066.66
2022-11-23T09:00:26.371Z,97066.00
2022-11-23T09:02:53.078Z,97071.81
2022-11-23T09:05:20.006Z,97073.06
2022-11-23T09:07:46.719Z,97064.75
2022-11-23T09:10:18.072Z,97070.59
2022-11-23T09:12:45.407Z,97072.25
2022-11-23T09:15:12.401Z,97065.72
2022-11-23T09:17:39.071Z,97061.53
2022-11-23T09:22:38.317Z,97068.63
2022-11-23T09:25:06.961Z,97069.41
2022-11-23T09:27:33.732Z,97068.66
2022-11-23T09:30:00.333Z,97071.75
2022-11-23T09:32:26.992Z,97060.13
2022-11-23T09:34:53.767Z,97073.72
2022-11-23T09:37:20.472Z,97069.81
2022-11-23T09:39:47.232Z,97068.66
2022-11-23T09:42:16.663Z,97067.06
2022-11-23T09:47:42.673Z,97068.47
2022-11-23T09:50:18.311Z,97058.31
2022-11-23T09:52:48.360Z,97067.22
2022-11-23T09:55:21.811Z,97065.31
2022-11-23T09:57:50.921Z,97070.41
2022-11-23T10:00:21.457Z,97067.31
2022-11-23T10:02:48.408Z,97056.00
2022-11-23T10:05:18.961Z,97057.53
2022-11-23T10:10:45.932Z,97057.50
2022-11-23T10:13:20.765Z,97055.94
2022-11-23T10:16:02.634Z,97052.06
2022-11-23T10:18:43.963Z,97052.50
2022-11-23T10:21:30.318Z,97047.44
2022-11-23T10:24:08.661Z,97047.84
2022-11-23T10:26:40.124Z,97037.72
2022-11-23T10:29:45.337Z,97032.69
2022-11-23T10:32:38.104Z,97028.81
2022-11-23T10:35:12.884Z,97027.66
2022-11-23T10:37:40.698Z,97036.63
2022-11-23T10:40:20.047Z,97028.84
2022-11-23T10:43:03.232Z,97031.63
2022-11-23T10:45:30.073Z,97030.88
2022-11-23T10:48:01.557Z,97029.34
2022-11-23T10:50:30.388Z,97033.22
2022-11-23T10:53:20.178Z,97024.69
2022-11-23T10:58:44.525Z,97027.38
2022-11-23T11:01:23.293Z,97031.69
2022-11-23T11:03:51.964Z,97029.72
2022-11-23T11:06:26.300Z,97022.34
2022-11-23T11:09:03.692Z,97025.47
2022-11-23T11:11:33.851Z,97021.19
2022-11-23T11:14:06.577Z,97018.09
2022-11-23T11:16:37.853Z,97020.41
2022-11-23T11:19:27.650Z,97016.53
2022-11-23T11:21:54.941Z,97008.38
2022-11-23T11:24:30.657Z,97014.22
2022-11-23T11:27:04.316Z,97007.19
2022-11-23T11:29:39.939Z,97011.09
2022-11-23T11:32:17.699Z,97008.00
2022-11-23T11:34:47.229Z,97011.09
2022-11-23T11:37:42.710Z,97006.47
2022-11-23T11:40:48.384Z,97007.22
2022-11-23T11:43:22.846Z,96997.13
2022-11-23T11:46:28.581Z,96992.44
2022-11-23T11:49:06.691Z,96985.44
2022-11-23T11:54:46.089Z,96983.09
2022-11-23T11:57:31.947Z,96986.19
2022-11-23T12:00:01.810Z,96985.38
2022-11-23T12:02:33.951Z,96983.00
2022-11-23T12:05:22.574Z,96979.81
2022-11-23T12:08:07.921Z,96972.75
2022-11-23T12:10:55.461Z,96971.13
2022-11-23T12:13:29.964Z,96968.47
2022-11-23T12:16:23.552Z,96963.31
2022-11-23T12:19:14.783Z,96959.00
2022-11-23T12:21:44.202Z,96953.84
2022-11-23T12:24:25.426Z,96955.25
2022-11-23T12:27:00.271Z,96946.38
2022-11-23T12:32:55.495Z,96943.47
2022-11-23T12:38:10.050Z,96949.66
2022-11-23T12:40:57.872Z,96957.06
2022-11-23T12:43:36.402Z,96944.88
2022-11-23T12:46:15.196Z,96949.88
2022-11-23T12:49:13.487Z,96951.69
2022-11-23T12:52:19.170Z,96943.19
2022-11-23T12:55:19.585Z,96939.00
2022-11-23T12:57:56.593Z,96941.53
2022-11-23T13:00:24.130Z,96932.94
2022-11-23T13:02:50.666Z,96937.34
2022-11-23T13:05:23.255Z,96932.66
2022-11-23T13:08:10.080Z,96932.19
2022-11-23T13:10:53.482Z,96929.22
2022-11-23T13:13:49.410Z,96932.28
2022-11-23T13:22:31.789Z,96926.91
2022-11-23T13:25:23.680Z,96926.25
2022-11-23T13:27:50.292Z,96928.25
2022-11-23T13:30:23.279Z,96923.94
2022-11-23T13:32:59.371Z,96922.41
2022-11-23T13:35:25.953Z,96912.38
2022-11-23T13:37:58.151Z,96914.31
2022-11-23T13:40:34.240Z,96913.09
2022-11-23T13:43:27.248Z,96911.66
2022-11-23T13:46:28.979Z,96916.69
2022-11-23T13:48:59.364Z,96899.16
2022-11-23T13:51:31.978Z,96899.16
2022-11-23T13:54:19.635Z,96885.19
2022-11-23T13:56:46.717Z,96894.22
2022-11-23T13:59:27.915Z,96880.59
2022-11-23T14:02:25.852Z,96877.44
2022-11-23T14:04:52.905Z,96881.38
2022-11-23T14:07:26.651Z,96868.13
2022-11-23T14:10:18.189Z,96873.25
2022-11-23T14:12:52.246Z,96866.69
2022-11-23T14:15:21.973Z,96871.34
2022-11-23T14:17:57.909Z,96862.78
2022-11-23T14:20:27.093Z,96856.16
2022-11-23T14:25:49.235Z,96857.38
2022-11-23T14:28:37.328Z,96856.59
2022-11-23T14:31:18.276Z,96854.66
2022-11-23T14:33:55.864Z,96853.50
2022-11-23T14:36:32.093Z,96842.22
2022-11-23T14:39:25.307Z,96846.88
2022-11-23T14:41:56.534Z,96849.59
2022-11-23T14:44:27.122Z,96853.59
2022-11-23T14:47:04.995Z,96847.75
2022-11-23T14:49:31.931Z,96860.25
2022-11-23T14:51:59.836Z,96852.88
2022-11-23T14:54:27.949Z,96850.53
2022-11-23T14:56:59.539Z,96846.69
2022-11-23T14:59:29.914Z,96845.88
2022-11-23T15:02:00.661Z,96841.22
2022-11-23T15:04:38.762Z,96835.03
2022-11-23T15:07:12.074Z,96833.53
2022-11-23T15:09:41.424Z,96827.69
2022-11-23T15:12:41.733Z,96834.34
2022-11-23T15:15:20.985Z,96830.91
2022-11-23T15:18:02.130Z,96823.88
2022-11-23T15:20:33.468Z,96827.78
2022-11-23T15:23:03.954Z,96830.16
2022-11-23T15:25:31.999Z,96830.59
2022-11-23T15:27:58.765Z,96834.88
2022-11-23T15:30:30.611Z,96829.03
2022-11-23T15:33:11.624Z,96836.88
2022-11-23T15:35:40.291Z,96828.69
2022-11-23T15:38:12.847Z,96836.91
2022-11-23T15:40:43.200Z,96841.94
2022-11-23T15:43:14.109Z,96837.28
2022-11-23T15:45:46.588Z,96844.28
2022-11-23T15:51:05.645Z,96831.06
2022-11-23T15:53:42.548Z,96829.91
2022-11-23T15:56:27.132Z,96826.00
2022-11-23T15:58:54.689Z,96823.66
2022-11-23T16:01:22.509Z,96835.34
2022-11-23T16:03:56.718Z,96846.25
2022-11-23T16:06:28.344Z,96838.84
2022-11-23T16:08:54.979Z,96841.59
2022-11-23T16:11:34.607Z,96847.78
2022-11-23T16:17:17.887Z,96842.75
2022-11-23T16:19:49.431Z,96851.69
2022-11-23T16:22:47.257Z,96851.69
2022-11-23T16:25:21.627Z,96852.06
2022-11-23T16:30:41.127Z,96874.22
2022-11-23T16:33:15.585Z,96874.22
2022-11-23T16:35:42.291Z,96871.53
2022-11-23T16:38:09.042Z,96866.09
2022-11-23T16:40:35.820Z,96871.91
2022-11-23T16:43:04.312Z,96879.69
2022-11-23T16:45:31.989Z,96889.41
2022-11-23T16:50:41.055Z,96912.72
2022-11-23T16:53:14.758Z,96922.44
2022-11-23T16:55:43.759Z,96929.44
2022-11-23T16:58:15.384Z,96945.41
2022-11-23T17:00:42.585Z,96950.44
2022-11-23T17:03:19.228Z,96952.75
2022-11-23T17:05:46.531Z,96962.06
2022-11-23T17:08:18.165Z,96959.00
2022-11-23T17:10:50.170Z,96965.22
2022-11-23T17:13:28.817Z,96962.91
2022-11-23T17:15:56.055Z,96972.59
2022-11-23T17:18:22.736Z,96978.44
2022-11-23T17:20:49.566Z,96978.41
2022-11-23T17:23:16.424Z,96992.41
2022-11-23T17:25:43.224Z,96991.25
2022-11-23T17:28:21.456Z,97000.94
2022-11-23T17:30:48.237Z,97007.94
2022-11-23T17:33:14.890Z,97008.34
2022-11-23T17:35:41.638Z,97014.13
2022-11-23T17:38:16.867Z,97025.72
2022-11-23T17:40:43.607Z,97025.72
2022-11-23T17:43:15.884Z,97032.44
2022-11-23T17:45:44.153Z,97032.09
2022-11-23T17:50:44.390Z,97035.91
2022-11-23T17:53:11.535Z,97045.25
2022-11-23T17:55:38.413Z,97056.50
2022-11-23T17:58:06.019Z,97054.53
2022-11-23T18:00:33.147Z,97054.53
2022-11-23T18:05:31.818Z,97067.31
2022-11-23T18:07:59.108Z,97068.81
2022-11-23T18:12:58.037Z,97075.72
2022-11-23T18:15:24.678Z,97071.91
2022-11-23T18:17:51.368Z,97079.25
2022-11-23T18:20:18.144Z,97080.81
2022-11-23T18:22:44.835Z,97071.44
2022-11-23T18:25:11.624Z,97071.78
2022-11-23T18:27:38.381Z,97074.47
2022-11-23T18:30:05.688Z,97072.19
2022-11-23T18:32:32.400Z,97084.22
2022-11-23T18:34:58.991Z,97083.50
2022-11-23T18:37:25.605Z,97084.31
2022-11-23T18:42:23.477Z,97090.75
2022-11-23T18:44:50.120Z,97092.69
2022-11-23T18:47:16.833Z,97091.47
2022-11-23T18:52:14.856Z,97106.97
2022-11-23T18:54:41.583Z,97105.44
2022-11-23T18:59:57.553Z,97111.59
2022-11-23T19:02:24.856Z,97111.53
2022-11-23T19:04:51.520Z,97109.13
2022-11-23T19:07:22.193Z,97114.13
2022-11-23T19:12:24.845Z,97115.09
2022-11-23T19:14:51.636Z,97117.78
2022-11-23T19:17:18.394Z,97127.22
2022-11-23T19:19:45.049Z,97127.19
2022-11-23T19:22:11.789Z,97136.13
2022-11-23T19:27:09.982Z,97133.75
2022-11-23T19:29:36.846Z,97147.38
2022-11-23T19:32:03.758Z,97150.06
2022-11-23T19:34:30.431Z,97150.88
2022-11-23T19:36:57.089Z,97151.22
2022-11-23T19:39:24.118Z,97165.94
2022-11-23T19:41:50.877Z,97172.53
2022-11-23T19:44:17.686Z,97183.06
2022-11-23T19:49:15.846Z,97191.19
2022-11-23T19:51:42.626Z,97191.53
2022-11-23T19:56:41.361Z,97202.00
2022-11-23T20:01:43.385Z,97203.25
2022-11-23T20:09:21.231Z,97215.69
2022-11-23T20:11:51.211Z,97231.19
2022-11-23T20:19:34.371Z,97250.16
2022-11-23T20:22:01.264Z,97257.59
2022-11-23T20:24:27.913Z,97265.34
2022-11-23T20:32:12.362Z,97278.59
2022-11-23T20:34:39.020Z,97286.72
2022-11-23T20:37:06.608Z,97292.94
2022-11-23T20:42:06.058Z,97309.59
2022-11-23T20:44:34.265Z,97317.47
2022-11-23T20:47:02.821Z,97321.34
2022-11-23T20:49:30.475Z,97335.31
2022-11-23T20:54:29.165Z,97335.69
2022-11-23T20:56:58.186Z,97353.19
2022-11-23T20:59:25.070Z,97367.50
2022-11-23T21:01:52.333Z,97364.16
2022-11-23T21:04:19.028Z,97374.34
2022-11-23T21:06:45.676Z,97385.66
2022-11-23T21:17:17.392Z,97395.47
2022-11-23T21:19:44.001Z,97407.16
2022-11-23T21:22:14.920Z,97396.25
2022-11-23T21:24:42.266Z,97404.78
2022-11-23T21:32:30.646Z,97418.66
2022-11-23T21:37:34.910Z,97426.44
2022-11-23T21:42:32.886Z,97439.72
2022-11-23T21:44:59.866Z,97447.13
2022-11-23T21:49:58.031Z,97446.72
2022-11-23T21:52:24.923Z,97456.84
2022-11-23T21:54:51.625Z,97454.56
2022-11-23T21:59:57.253Z,97468.84
2022-11-23T22:04:55.126Z,97466.88
2022-11-23T22:09:55.080Z,97482.38
2022-11-23T22:14:59.569Z,97490.97
2022-11-23T22:17:26.431Z,97493.78
2022-11-23T22:19:53.131Z,97498.03
2022-11-23T22:22:19.970Z,97501.22
2022-11-23T22:24:46.680Z,97509.06
2022-11-23T22:27:13.286Z,97517.63
2022-11-23T22:32:11.213Z,97514.06
2022-11-23T22:34:38.201Z,97525.34
2022-11-23T22:37:10.278Z,97514.44
2022-11-23T22:42:09.164Z,97534.56
2022-11-23T22:47:07.046Z,97539.22
2022-11-23T22:49:33.666Z,97539.16
2022-11-23T22:52:00.325Z,97538.38
2022-11-23T22:54:29.041Z,97539.09
2022-11-23T22:56:55.692Z,97538.03
2022-11-23T22:59:22.320Z,97546.13
2022-11-23T23:31:38.451Z,97592.78
2022-11-23T23:34:05.130Z,97588.22
2022-11-23T23:36:31.825Z,97599.09
2022-11-23T23:38:58.626Z,97605.84
2022-11-23T23:41:25.341Z,97604.13
2022-11-23T23:43:52.060Z,97599.72
2022-11-23T23:46:19.109Z,97606.00
2022-11-23T23:48:46.282Z,97604.34
2022-11-23T23:51:21.124Z,97603.97
2022-11-23T23:56:27.802Z,97613.59
2022-11-23T23:58:59.239Z,97610.63
